Time;durP1;ratioP1;P1;durP2;ratioP2;P2;SDS_P1;SDS_P2;PMS_P1;PMS_P2;Temp;Humidity;BMP_temperature;BMP_pressure;BME280_temperature;BME280_humidity;BME280_pressure;Samples;Min_cycle;Max_cycle;Signal;HPM_P1;HPM_P2
2023/01/01 00:01:11;;;;;;;18.35;6.47;;;14.10;99.90;;;;;;5046435;28;20028;-76
2023/01/01 00:03:36;;;;;;;14.48;6.88;;;14.00;99.90;;;;;;5062144;28;20032;-77
2023/01/01 00:06:07;;;;;;;12.80;6.47;;;14.10;99.90;;;;;;5060286;28;20214;-76
2023/01/01 00:08:34;;;;;;;11.93;5.63;;;14.00;99.90;;;;;;5045929;28;20107;-77
2023/01/01 00:11:04;;;;;;;13.85;6.45;;;14.00;99.90;;;;;;5029884;28;20036;-76
2023/01/01 00:13:30;;;;;;;11.50;6.15;;;14.00;99.90;;;;;;5057943;28;20219;-77
2023/01/01 00:27:06;;;;;;;18.73;11.13;;;12.70;99.90;;;;;;4961559;28;20169;-75
2023/01/01 00:29:34;;;;;;;17.75;11.40;;;13.60;99.90;;;;;;5025055;28;20032;-76
2023/01/01 00:32:00;;;;;;;18.75;11.25;;;13.10;99.90;;;;;;5058184;28;20036;-76
2023/01/01 00:34:37;;;;;;;20.63;11.85;;;13.50;99.90;;;;;;5077829;28;20314;-78
2023/01/01 00:37:08;;;;;;;21.00;11.30;;;13.30;99.90;;;;;;5057640;28;20055;-76
2023/01/01 00:50:49;;;;;;;17.85;9.57;;;12.60;99.90;;;;;;4942576;28;20202;-78
2023/01/01 00:53:18;;;;;;;19.33;8.95;;;13.20;99.90;;;;;;4991092;28;20047;-76
2023/01/01 00:58:48;;;;;;;17.33;9.13;;;13.20;99.90;;;;;;5054291;28;20038;-76
2023/01/01 01:01:15;;;;;;;19.55;10.32;;;13.20;99.90;;;;;;5065308;28;20056;-74
2023/01/01 01:03:41;;;;;;;13.85;9.32;;;13.20;99.90;;;;;;5077015;28;20325;-74
2023/01/01 01:06:13;;;;;;;17.33;10.32;;;13.20;99.90;;;;;;5059569;28;20315;-75
2023/01/01 01:08:44;;;;;;;16.95;9.70;;;13.30;99.90;;;;;;5068719;28;20125;-76
2023/01/01 01:11:28;;;;;;;16.88;10.20;;;13.70;99.90;;;;;;5072248;28;20513;-76
2023/01/01 01:14:21;;;;;;;19.23;12.05;;;13.30;99.90;;;;;;5069164;28;20086;-75
2023/01/01 01:17:06;;;;;;;24.73;13.75;;;13.30;99.90;;;;;;5033195;28;20059;-76
2023/01/01 01:19:47;;;;;;;23.15;13.32;;;13.70;99.90;;;;;;5016815;28;20540;-74
2023/01/01 01:26:28;;;;;;;23.48;15.27;;;12.50;99.90;;;;;;4919388;29;20036;-75
2023/01/01 01:29:05;;;;;;;25.15;15.45;;;13.10;99.90;;;;;;4957286;28;20054;-75
2023/01/01 01:31:39;;;;;;;24.90;16.42;;;13.20;99.90;;;;;;4954016;28;20222;-76
2023/01/01 01:34:05;;;;;;;30.85;18.48;;;13.10;99.90;;;;;;4991734;28;20317;-76
2023/01/01 01:36:33;;;;;;;27.52;17.08;;;13.20;99.90;;;;;;5002414;28;20037;-74
2023/01/01 01:38:59;;;;;;;26.40;18.20;;;13.10;99.90;;;;;;5002941;28;20297;-76
2023/01/01 01:41:26;;;;;;;26.90;18.50;;;13.10;99.90;;;;;;5002422;28;20080;-77
2023/01/01 01:44:25;;;;;;;33.20;19.67;;;13.10;99.90;;;;;;5020138;28;20127;-75
2023/01/01 01:46:51;;;;;;;31.60;20.23;;;13.20;99.90;;;;;;5023488;28;20061;-74
2023/01/01 01:49:22;;;;;;;33.90;20.83;;;13.10;99.90;;;;;;5003307;28;20439;-75
2023/01/01 01:51:51;;;;;;;27.98;19.30;;;13.10;99.90;;;;;;5059620;28;20107;-76
2023/01/01 01:54:25;;;;;;;31.45;20.88;;;13.00;99.90;;;;;;5033746;28;20020;-75
2023/01/01 01:56:56;;;;;;;32.00;22.85;;;12.90;99.90;;;;;;5065626;28;20375;-73
2023/01/01 01:59:26;;;;;;;36.35;23.58;;;13.00;99.90;;;;;;5057026;28;20031;-77
2023/01/01 02:01:52;;;;;;;42.63;26.92;;;12.90;99.90;;;;;;5064298;28;20015;-76
2023/01/01 02:04:18;;;;;;;38.78;26.98;;;12.80;99.90;;;;;;5065106;28;20028;-78
2023/01/01 02:06:44;;;;;;;42.05;28.63;;;12.60;99.90;;;;;;5074830;28;20086;-79
2023/01/01 02:09:10;;;;;;;41.92;30.90;;;12.60;99.90;;;;;;5065432;28;20032;-76
2023/01/01 02:11:36;;;;;;;45.50;30.65;;;12.70;99.90;;;;;;5041568;28;20032;-77
2023/01/01 02:14:03;;;;;;;48.83;32.67;;;12.70;99.90;;;;;;5068608;28;20032;-77
2023/01/01 02:16:52;;;;;;;46.00;29.83;;;12.50;99.90;;;;;;5061735;28;20021;-76
2023/01/01 02:19:45;;;;;;;46.80;32.67;;;12.60;99.90;;;;;;5074567;28;20219;-76
2023/01/01 02:22:52;;;;;;;43.55;32.85;;;12.60;99.90;;;;;;5069797;28;20217;-77
2023/01/01 02:30:00;;;;;;;50.30;33.70;;;11.80;99.90;;;;;;5092825;28;20046;-77
2023/01/01 02:32:53;;;;;;;46.28;31.30;;;11.60;99.90;;;;;;5034031;28;20051;-75
2023/01/01 02:50:09;;;;;;;35.90;22.50;;;11.50;99.90;;;;;;4937689;28;20043;-77
2023/01/01 02:53:30;;;;;;;34.15;21.90;;;12.60;99.90;;;;;;4928546;29;20075;-77
2023/01/01 02:56:11;;;;;;;34.28;22.05;;;11.50;99.90;;;;;;4931781;29;20242;-78
2023/01/01 03:01:47;;;;;;;31.55;20.20;;;12.60;99.90;;;;;;5065677;28;20064;-78
2023/01/01 03:05:09;;;;;;;30.42;18.13;;;12.60;99.90;;;;;;5083274;28;20051;-78
2023/01/01 03:07:44;;;;;;;23.50;17.05;;;12.60;99.90;;;;;;5010451;28;20040;-78
2023/01/01 03:10:26;;;;;;;24.23;17.60;;;12.60;99.90;;;;;;5049348;28;20319;-77
2023/01/01 03:13:17;;;;;;;21.83;15.43;;;12.10;99.90;;;;;;5063273;28;20060;-78
2023/01/01 03:23:53;;;;;;;24.25;15.18;;;12.50;99.90;;;;;;4867390;29;20239;-76
2023/01/01 03:26:58;;;;;;;24.27;14.60;;;12.40;99.90;;;;;;4933453;28;20061;-76
2023/01/01 03:29:45;;;;;;;25.30;15.10;;;11.30;99.90;;;;;;4994420;28;20042;-76
2023/01/01 03:32:20;;;;;;;23.35;15.07;;;12.50;99.90;;;;;;5061408;28;20028;-78
2023/01/01 03:38:46;;;;;;;24.50;16.08;;;12.20;99.90;;;;;;5061442;28;20349;-78
2023/01/01 03:42:04;;;;;;;30.35;17.05;;;12.20;99.90;;;;;;5066176;28;20063;-78
2023/01/01 03:52:32;;;;;;;33.08;19.52;;;12.20;99.90;;;;;;5002381;28;20041;-77
2023/01/01 03:55:29;;;;;;;29.95;17.77;;;11.10;99.90;;;;;;5002105;28;20034;-77
2023/01/01 03:58:04;;;;;;;33.55;18.30;;;11.80;99.90;;;;;;4983182;28;20045;-76
2023/01/01 04:00:36;;;;;;;28.08;16.17;;;12.00;99.90;;;;;;5065691;28;20042;-78
2023/01/01 04:03:27;;;;;;;28.92;17.52;;;12.30;99.90;;;;;;5059675;28;20056;-77
2023/01/01 04:05:53;;;;;;;26.90;16.95;;;12.30;99.90;;;;;;5050494;28;20253;-76
2023/01/01 04:08:20;;;;;;;23.67;13.93;;;12.30;99.90;;;;;;5063056;28;20064;-76
2023/01/01 04:12:00;;;;;;;21.27;12.02;;;12.10;99.90;;;;;;5070519;28;20032;-76
2023/01/01 04:13:48;;;;;;;23.38;11.65;;;12.40;99.90;;;;;;5070067;28;20082;-75
2023/01/01 04:16:14;;;;;;;17.80;8.48;;;12.40;99.90;;;;;;5066512;28;20024;-77
2023/01/01 04:19:08;;;;;;;15.68;8.30;;;12.00;99.90;;;;;;5051746;28;20028;-76
2023/01/01 04:22:25;;;;;;;;;;;;;;;;;;;;;
2023/01/01 04:32:46;;;;;;;16.48;5.95;;;11.50;99.90;;;;;;5000545;28;20048;-76
2023/01/01 04:35:21;;;;;;;14.57;5.85;;;12.30;99.90;;;;;;4981095;28;20049;-76
2023/01/01 04:37:47;;;;;;;15.80;5.63;;;12.30;99.90;;;;;;4995143;28;20040;-77
2023/01/01 04:40:13;;;;;;;15.85;5.63;;;12.30;99.90;;;;;;5056708;28;20032;-76
2023/01/01 04:42:38;;;;;;;14.88;6.35;;;12.30;99.90;;;;;;5061069;28;20020;-76
2023/01/01 04:45:05;;;;;;;13.07;5.70;;;12.50;99.90;;;;;;5041532;28;20020;-76
2023/01/01 04:47:32;;;;;;;11.77;6.28;;;12.50;99.90;;;;;;5044774;28;20032;-76
2023/01/01 04:50:07;;;;;;;17.42;7.53;;;12.10;99.90;;;;;;5076883;28;20025;-77
2023/01/01 04:52:39;;;;;;;16.98;7.07;;;12.10;99.90;;;;;;5065997;28;20044;-76
2023/01/01 04:55:07;;;;;;;14.93;7.50;;;12.10;99.90;;;;;;5040650;28;20024;-77
2023/01/01 04:57:33;;;;;;;16.00;8.13;;;12.00;99.90;;;;;;5036543;28;20059;-76
2023/01/01 04:59:59;;;;;;;15.40;7.80;;;12.10;99.90;;;;;;5037696;28;20223;-76
2023/01/01 05:02:25;;;;;;;16.52;7.63;;;12.50;99.90;;;;;;5028808;28;20116;-76
2023/01/01 05:04:51;;;;;;;14.75;6.45;;;12.20;99.90;;;;;;5032965;28;20036;-75
2023/01/01 05:07:16;;;;;;;13.43;6.30;;;12.00;99.90;;;;;;5085965;28;20037;-76
2023/01/01 05:09:42;;;;;;;14.27;5.75;;;12.30;99.90;;;;;;5070592;28;20035;-76
2023/01/01 05:12:08;;;;;;;14.18;5.30;;;11.80;99.90;;;;;;5054019;28;20052;-76
2023/01/01 05:14:33;;;;;;;14.95;4.82;;;11.80;99.90;;;;;;5042965;28;20059;-75
2023/01/01 05:16:59;;;;;;;11.05;4.55;;;11.80;99.90;;;;;;5050095;28;20102;-75
2023/01/01 05:19:25;;;;;;;8.27;3.72;;;12.20;99.90;;;;;;5044158;28;20043;-75
2023/01/01 05:21:50;;;;;;;15.48;4.55;;;12.20;99.90;;;;;;5076444;28;20024;-75
2023/01/01 05:24:16;;;;;;;11.82;4.88;;;12.00;99.90;;;;;;5047119;28;20032;-76
2023/01/01 05:26:43;;;;;;;11.05;4.50;;;11.90;99.90;;;;;;5044275;28;20099;-74
2023/01/01 05:29:09;;;;;;;12.18;3.83;;;12.10;99.90;;;;;;5071414;28;20047;-75
2023/01/01 05:31:35;;;;;;;14.50;3.90;;;11.80;99.90;;;;;;5085039;28;20028;-74
2023/01/01 05:34:02;;;;;;;8.90;3.65;;;11.80;99.90;;;;;;5070601;28;20055;-74
2023/01/01 05:36:37;;;;;;;9.02;3.58;;;11.90;99.90;;;;;;5069937;28;20103;-74
2023/01/01 05:39:03;;;;;;;9.77;3.80;;;12.20;99.90;;;;;;5063706;28;20423;-75
2023/01/01 05:41:30;;;;;;;14.30;4.32;;;12.10;99.90;;;;;;5078723;28;20054;-74
2023/01/01 05:43:55;;;;;;;7.47;4.07;;;12.20;99.90;;;;;;5040228;28;20238;-76
2023/01/01 05:46:23;;;;;;;14.98;4.43;;;12.00;99.90;;;;;;5079287;28;20040;-75
2023/01/01 05:48:51;;;;;;;17.30;3.60;;;12.20;99.90;;;;;;5072742;28;20071;-74
2023/01/01 05:51:22;;;;;;;9.77;3.92;;;11.90;99.90;;;;;;5068427;28;20406;-76
2023/01/01 05:53:48;;;;;;;10.32;3.25;;;12.20;99.90;;;;;;5082182;28;20040;-77
2023/01/01 05:56:15;;;;;;;9.95;2.78;;;11.90;99.90;;;;;;5054879;28;20220;-77
2023/01/01 05:58:42;;;;;;;7.45;2.83;;;11.90;99.90;;;;;;5080487;28;20039;-78
2023/01/01 06:01:09;;;;;;;9.02;2.95;;;11.90;99.90;;;;;;5049348;28;20108;-78
2023/01/01 06:03:35;;;;;;;7.53;2.75;;;12.00;99.90;;;;;;5064671;28;20320;-78
2023/01/01 06:06:10;;;;;;;8.35;2.47;;;12.10;99.90;;;;;;5059965;28;20036;-78
2023/01/01 06:08:37;;;;;;;7.72;2.33;;;12.00;99.90;;;;;;5074332;28;20463;-77
2023/01/01 06:11:07;;;;;;;9.35;2.30;;;11.80;99.90;;;;;;5066136;28;20028;-78
2023/01/01 06:13:33;;;;;;;5.72;2.63;;;11.90;99.90;;;;;;5056015;28;20040;-78
2023/01/01 06:16:01;;;;;;;7.00;1.88;;;11.70;99.90;;;;;;5063442;28;20157;-79
2023/01/01 06:18:30;;;;;;;3.50;1.70;;;11.80;99.90;;;;;;5052201;28;20036;-78
2023/01/01 06:21:07;;;;;;;7.95;2.35;;;11.80;99.90;;;;;;5065481;28;20267;-77
2023/01/01 06:23:33;;;;;;;6.38;1.83;;;11.80;99.90;;;;;;5048993;28;20060;-78
2023/01/01 06:26:49;;;;;;;8.85;2.38;;;11.70;99.90;;;;;;5063449;28;20215;-78
2023/01/01 06:29:28;;;;;;;4.15;1.80;;;11.70;99.90;;;;;;5018742;28;20052;-77
2023/01/01 06:32:17;;;;;;;5.82;2.45;;;10.80;99.90;;;;;;5082458;28;20032;-75
2023/01/01 06:34:43;;;;;;;6.25;1.75;;;12.20;99.90;;;;;;5054988;28;20311;-78
2023/01/01 06:37:08;;;;;;;8.85;1.70;;;11.80;99.90;;;;;;5050534;28;20103;-78
2023/01/01 06:39:34;;;;;;;8.63;1.50;;;11.70;99.90;;;;;;5053231;28;20319;-79
2023/01/01 06:42:00;;;;;;;9.43;1.60;;;11.70;99.90;;;;;;5066244;28;20075;-76
2023/01/01 06:44:25;;;;;;;6.45;1.38;;;11.70;99.90;;;;;;5047321;28;20059;-76
2023/01/01 06:46:51;;;;;;;5.47;1.70;;;11.70;99.90;;;;;;5065639;28;20309;-76
2023/01/01 06:49:17;;;;;;;5.90;1.45;;;11.80;99.90;;;;;;5041015;28;20029;-77
2023/01/01 06:51:43;;;;;;;6.53;2.10;;;11.80;99.90;;;;;;5082323;28;20063;-77
2023/01/01 06:54:09;;;;;;;6.45;1.80;;;11.70;99.90;;;;;;5084251;28;20199;-76
2023/01/01 06:56:36;;;;;;;3.95;1.90;;;11.60;99.90;;;;;;5048055;28;20126;-77
2023/01/01 06:59:02;;;;;;;10.23;1.40;;;11.50;99.90;;;;;;5067667;28;20035;-77
2023/01/01 07:01:43;;;;;;;5.28;1.95;;;11.50;99.90;;;;;;5080587;28;20081;-76
2023/01/01 07:04:15;;;;;;;5.55;1.63;;;11.50;99.90;;;;;;5060609;28;20127;-78
2023/01/01 07:06:41;;;;;;;7.75;1.50;;;11.60;99.90;;;;;;5054723;28;20444;-77
2023/01/01 07:09:25;;;;;;;9.27;1.85;;;11.50;99.90;;;;;;5042445;28;20067;-78
2023/01/01 07:11:51;;;;;;;8.43;1.52;;;11.50;99.90;;;;;;5071751;28;20265;-78
2023/01/01 07:14:17;;;;;;;10.05;1.80;;;11.50;99.90;;;;;;5063549;28;20052;-76
2023/01/01 07:17:19;;;;;;;8.63;2.13;;;11.50;99.90;;;;;;5057867;28;20036;-77
2023/01/01 07:20:44;;;;;;;7.07;2.20;;;10.20;99.90;;;;;;5009185;28;20080;-77
2023/01/01 07:23:13;;;;;;;8.18;1.35;;;11.50;99.90;;;;;;5005124;28;20052;-77
2023/01/01 07:25:41;;;;;;;8.75;1.85;;;11.40;99.90;;;;;;5042636;28;20057;-77
2023/01/01 07:28:07;;;;;;;8.27;2.00;;;11.40;99.90;;;;;;5031572;28;20773;-77
2023/01/01 07:30:32;;;;;;;7.18;1.98;;;11.50;99.90;;;;;;5044065;28;20060;-79
2023/01/01 07:32:58;;;;;;;8.63;1.63;;;11.40;99.90;;;;;;5034296;28;20016;-76
2023/01/01 07:35:24;;;;;;;9.13;2.45;;;11.40;99.90;;;;;;5045944;28;20037;-75
2023/01/01 07:37:49;;;;;;;8.57;1.70;;;11.40;99.90;;;;;;5035356;28;20036;-75
2023/01/01 07:40:15;;;;;;;7.40;2.10;;;11.40;99.90;;;;;;5055522;28;20343;-77
2023/01/01 07:42:41;;;;;;;13.20;2.38;;;11.40;99.90;;;;;;5042124;28;20339;-77
2023/01/01 07:45:08;;;;;;;10.15;2.17;;;11.30;99.90;;;;;;5044229;28;20040;-77
2023/01/01 07:47:34;;;;;;;17.52;2.22;;;11.30;99.90;;;;;;5044214;28;20040;-77
2023/01/01 07:49:59;;;;;;;12.80;2.72;;;11.30;99.90;;;;;;5051759;28;20108;-78
2023/01/01 07:52:28;;;;;;;7.22;2.17;;;11.30;99.90;;;;;;5060042;28;20029;-78
2023/01/01 07:58:40;;;;;;;11.43;2.47;;;11.20;99.90;;;;;;5019575;28;20036;-78
2023/01/01 08:01:10;;;;;;;16.55;2.30;;;11.20;99.90;;;;;;5059416;28;20751;-77
2023/01/01 08:03:36;;;;;;;12.57;2.47;;;11.20;99.90;;;;;;5051529;28;20031;-78
2023/01/01 08:06:12;;;;;;;18.35;3.20;;;11.20;99.90;;;;;;5035148;28;20032;-76
2023/01/01 08:08:38;;;;;;;13.77;2.15;;;11.30;99.90;;;;;;5062492;28;20219;-75
2023/01/01 08:11:04;;;;;;;12.15;2.03;;;11.20;99.90;;;;;;5058682;28;20036;-76
2023/01/01 08:13:30;;;;;;;14.52;2.72;;;11.20;99.90;;;;;;5070200;28;20205;-77
2023/01/01 08:16:02;;;;;;;13.00;2.10;;;11.40;99.90;;;;;;5043698;28;20051;-76
2023/01/01 08:25:09;;;;;;;13.95;2.50;;;10.80;99.90;;;;;;5039552;28;20094;-77
2023/01/01 08:27:44;;;;;;;15.25;2.20;;;10.10;99.90;;;;;;5063408;28;20551;-75
2023/01/01 08:31:08;;;;;;;;;;;;;;;;;;;;;
2023/01/01 08:33:54;;;;;;;17.00;2.72;;;10.10;99.90;;;;;;4999170;28;20109;-77
2023/01/01 08:36:32;;;;;;;12.75;1.90;;;11.40;99.90;;;;;;4996463;28;20072;-79
2023/01/01 08:39:18;;;;;;;16.02;2.55;;;11.20;99.90;;;;;;5060922;28;20046;-78
2023/01/01 08:41:44;;;;;;;14.02;2.38;;;10.20;99.90;;;;;;5045223;28;20238;-78
2023/01/01 08:47:48;;;;;;;22.63;3.28;;;10.10;99.90;;;;;;5005046;28;20080;-76
2023/01/01 08:50:14;;;;;;;17.73;3.08;;;11.10;99.90;;;;;;5015998;28;20052;-76
2023/01/01 08:55:35;;;;;;;15.40;2.83;;;11.20;99.90;;;;;;5053607;28;20028;-76
2023/01/01 08:58:04;;;;;;;12.02;3.08;;;11.10;99.90;;;;;;5051507;28;20032;-76
2023/01/01 09:00:32;;;;;;;15.05;2.92;;;11.10;99.90;;;;;;5068373;28;20044;-78
2023/01/01 09:02:58;;;;;;;12.73;2.67;;;11.20;99.90;;;;;;5047619;28;20033;-76
2023/01/01 09:05:33;;;;;;;18.05;3.25;;;11.10;99.90;;;;;;5063361;28;20140;-77
2023/01/01 09:08:20;;;;;;;;;;;11.10;99.90;;;;;;5063715;28;20230;-76
2023/01/01 09:11:28;;;;;;;16.30;2.95;;;11.10;99.90;;;;;;5073956;28;19918;-77
2023/01/01 09:14:00;;;;;;;12.65;2.42;;;11.30;99.90;;;;;;5055992;28;20053;-77
2023/01/01 09:16:25;;;;;;;14.57;2.80;;;11.30;99.90;;;;;;5049106;28;20040;-77
2023/01/01 09:18:52;;;;;;;15.13;2.85;;;11.30;99.90;;;;;;5049035;28;20150;-77
2023/01/01 09:21:20;;;;;;;16.02;2.58;;;11.20;99.90;;;;;;5053495;28;20031;-78
2023/01/01 09:23:45;;;;;;;11.95;3.20;;;11.30;99.90;;;;;;5054586;28;20048;-78
2023/01/01 09:27:03;;;;;;;17.88;3.95;;;11.20;99.90;;;;;;5048248;28;20060;-75
2023/01/01 09:29:52;;;;;;;16.88;3.15;;;11.30;99.90;;;;;;5054196;28;20079;-77
2023/01/01 09:36:37;;;;;;;14.27;2.25;;;10.30;99.90;;;;;;4950298;29;20042;-77
2023/01/01 09:39:11;;;;;;;14.65;2.75;;;10.70;99.90;;;;;;4938127;28;20071;-75
2023/01/01 09:42:39;;;;;;;19.65;3.17;;;11.30;99.90;;;;;;4940922;29;20035;-76
2023/01/01 09:45:22;;;;;;;11.98;2.42;;;11.30;99.90;;;;;;4933485;29;20325;-77
2023/01/01 09:47:59;;;;;;;15.55;2.95;;;11.20;99.90;;;;;;4925619;29;20530;-78
2023/01/01 09:50:32;;;;;;;20.08;3.33;;;11.30;99.90;;;;;;5013072;28;20044;-76
2023/01/01 09:53:11;;;;;;;22.70;2.88;;;11.40;99.90;;;;;;5063567;28;20332;-76
2023/01/01 09:55:56;;;;;;;14.57;2.78;;;11.40;99.90;;;;;;5065475;28;20043;-76
2023/01/01 09:58:24;;;;;;;;;;;11.50;99.90;;;;;;5066127;28;20043;-76
2023/01/01 10:01:00;;;;;;;15.45;3.03;;;11.50;99.90;;;;;;5067382;28;19927;-75
2023/01/01 10:03:59;;;;;;;17.52;3.38;;;11.50;99.90;;;;;;5056546;28;20032;-76
2023/01/01 10:06:32;;;;;;;20.17;3.75;;;11.60;99.90;;;;;;5048255;28;20035;-76
2023/01/01 10:09:43;;;;;;;18.58;3.13;;;11.70;99.90;;;;;;5077173;28;20032;-75
2023/01/01 10:13:15;;;;;;;12.57;3.10;;;11.40;99.90;;;;;;5092220;28;20050;-75
2023/01/01 10:19:45;;;;;;;;;;;12.00;99.90;;;;;;5051930;28;20196;-76
2023/01/01 10:22:23;;;;;;;17.60;3.03;;;12.60;99.90;;;;;;5075409;28;19988;-75
2023/01/01 10:29:01;;;;;;;17.13;2.47;;;13.50;99.90;;;;;;4986790;28;20084;-74
2023/01/01 10:31:37;;;;;;;13.70;2.53;;;12.70;99.90;;;;;;5020258;28;20067;-75
2023/01/01 10:34:24;;;;;;;14.77;2.67;;;13.00;99.90;;;;;;5064387;28;20251;-75
2023/01/01 10:37:22;;;;;;;15.15;2.58;;;12.80;99.90;;;;;;5064408;28;20043;-74
2023/01/01 10:45:04;;;;;;;13.30;2.70;;;12.40;99.90;;;;;;4963833;28;20086;-75
2023/01/01 11:04:17;;;;;;;13.98;2.67;;;12.40;99.90;;;;;;4853516;29;20097;-74
2023/01/01 11:06:39;;;;;;;15.80;2.28;;;12.30;99.90;;;;;;4831533;29;20029;-75
2023/01/01 11:09:55;;;;;;;11.88;2.60;;;12.20;99.90;;;;;;4913403;29;20031;-75
2023/01/01 11:13:38;;;;;;;11.95;2.38;;;12.20;99.90;;;;;;4938979;28;20048;-74
2023/01/01 11:20:39;;;;;;;8.70;2.00;;;11.20;99.90;;;;;;5028848;28;20045;-76
2023/01/01 11:23:39;;;;;;;10.68;2.10;;;11.70;99.90;;;;;;4984653;28;20253;-74
2023/01/01 11:27:05;;;;;;;10.95;2.30;;;12.30;99.90;;;;;;5011421;28;20033;-75
2023/01/01 11:38:07;;;;;;;13.15;2.30;;;12.40;99.90;;;;;;4942838;28;20046;-74
2023/01/01 11:41:26;;;;;;;9.02;1.80;;;11.80;99.90;;;;;;4917401;28;20038;-75
2023/01/01 11:43:59;;;;;;;15.20;2.60;;;11.10;99.90;;;;;;4937917;28;20220;-74
2023/01/01 11:46:45;;;;;;;11.40;2.13;;;11.60;99.90;;;;;;5004203;28;20025;-75
2023/01/01 11:49:44;;;;;;;10.80;2.20;;;11.90;99.90;;;;;;4989375;28;20088;-73
2023/01/01 11:55:59;;;;;;;10.77;2.92;;;11.90;99.90;;;;;;4914893;29;20103;-73
2023/01/01 11:59:30;;;;;;;9.55;2.05;;;11.90;99.90;;;;;;5005626;28;20049;-73
2023/01/01 12:02:01;;;;;;;13.77;2.03;;;11.90;99.90;;;;;;4976304;28;20081;-74
2023/01/01 12:04:32;;;;;;;7.93;2.05;;;12.20;99.90;;;;;;5004506;28;20115;-74
2023/01/01 12:07:45;;;;;;;9.25;2.03;;;12.50;99.90;;;;;;5064817;28;20294;-75
2023/01/01 12:11:05;;;;;;;10.88;2.17;;;12.30;99.90;;;;;;4940926;28;20046;-75
2023/01/01 12:13:42;;;;;;;10.05;2.10;;;12.30;99.90;;;;;;4983086;28;20219;-74
2023/01/01 12:16:15;;;;;;;11.45;2.90;;;12.40;99.90;;;;;;5063538;28;20056;-73
2023/01/01 12:18:46;;;;;;;11.63;2.30;;;12.40;99.90;;;;;;5055823;28;20062;-73
2023/01/01 12:21:42;;;;;;;12.30;3.10;;;12.40;99.90;;;;;;5064294;28;20081;-73
2023/01/01 12:24:14;;;;;;;11.68;2.40;;;12.30;99.90;;;;;;5065686;28;20063;-72
2023/01/01 12:26:51;;;;;;;16.52;2.88;;;12.10;99.90;;;;;;5031238;28;20039;-74
2023/01/01 12:29:40;;;;;;;10.73;2.42;;;12.20;99.90;;;;;;5080280;28;20093;-72
2023/01/01 12:32:09;;;;;;;10.48;2.40;;;12.10;99.90;;;;;;5072374;28;20032;-74
2023/01/01 12:34:57;;;;;;;12.10;2.28;;;12.10;99.90;;;;;;5061784;28;20027;-75
2023/01/01 12:37:46;;;;;;;13.68;2.10;;;13.00;99.90;;;;;;5071487;28;20105;-73
2023/01/01 12:40:40;;;;;;;11.38;2.65;;;12.10;99.90;;;;;;5061781;28;20040;-74
2023/01/01 12:43:36;;;;;;;16.10;3.33;;;12.10;99.90;;;;;;5074207;28;20042;-74
2023/01/01 12:46:43;;;;;;;14.60;3.20;;;12.10;99.90;;;;;;5063208;28;20060;-73
2023/01/01 12:49:45;;;;;;;15.13;3.63;;;12.10;99.90;;;;;;5071849;28;20357;-75
2023/01/01 12:52:22;;;;;;;8.23;1.88;;;12.10;99.90;;;;;;5061025;28;20230;-73
2023/01/01 12:55:16;;;;;;;13.82;2.08;;;12.10;99.90;;;;;;5057814;28;20188;-74
2023/01/01 12:57:56;;;;;;;11.68;3.38;;;12.00;99.90;;;;;;5058133;28;20338;-74
2023/01/01 13:00:21;;;;;;;11.63;2.28;;;12.00;99.90;;;;;;5053898;28;20064;-73
2023/01/01 13:02:52;;;;;;;15.20;2.65;;;12.10;99.90;;;;;;5062126;28;20028;-73
2023/01/01 13:05:27;;;;;;;16.33;2.40;;;12.10;99.90;;;;;;5070759;28;20044;-74
2023/01/01 13:08:10;;;;;;;16.88;2.90;;;12.20;99.90;;;;;;5073919;28;20378;-73
2023/01/01 13:10:43;;;;;;;8.90;2.35;;;12.20;99.90;;;;;;5045223;28;20036;-72
2023/01/01 13:13:11;;;;;;;12.52;2.15;;;12.10;99.90;;;;;;5050025;28;20246;-74
2023/01/01 13:15:47;;;;;;;10.57;2.40;;;12.10;99.90;;;;;;5071035;28;20243;-74
2023/01/01 13:18:14;;;;;;;9.88;2.35;;;12.10;99.90;;;;;;5061311;28;20301;-75
2023/01/01 13:20:57;;;;;;;10.60;2.20;;;12.10;99.90;;;;;;5080749;28;20062;-74
2023/01/01 13:28:16;;;;;;;9.95;1.90;;;12.00;99.90;;;;;;4985751;28;20554;-75
2023/01/01 13:30:48;;;;;;;6.38;1.92;;;12.00;99.90;;;;;;5064620;28;20046;-75
2023/01/01 13:33:29;;;;;;;9.82;2.10;;;12.10;99.90;;;;;;5058997;28;20029;-75
2023/01/01 13:36:07;;;;;;;7.38;2.75;;;11.90;99.90;;;;;;5064480;28;20321;-75
2023/01/01 13:38:56;;;;;;;10.52;2.28;;;12.00;99.90;;;;;;5063916;28;20149;-73
2023/01/01 13:41:28;;;;;;;10.45;3.28;;;11.90;99.90;;;;;;5075877;28;20058;-74
2023/01/01 13:44:16;;;;;;;11.77;2.40;;;11.90;99.90;;;;;;5045938;28;20047;-73
2023/01/01 13:46:51;;;;;;;14.80;2.53;;;12.70;99.90;;;;;;5047520;28;20103;-74
2023/01/01 13:49:29;;;;;;;8.73;2.15;;;12.00;99.90;;;;;;5061538;28;20389;-73
2023/01/01 13:52:07;;;;;;;11.93;2.10;;;13.20;99.90;;;;;;5096778;28;20238;-72
2023/01/01 13:55:10;;;;;;;11.02;2.38;;;11.00;99.90;;;;;;5071062;28;20036;-74
2023/01/01 13:57:35;;;;;;;14.05;2.60;;;11.90;99.90;;;;;;5068340;28;20039;-73
2023/01/01 14:00:24;;;;;;;10.18;2.17;;;11.90;99.90;;;;;;5080630;28;20031;-75
2023/01/01 14:03:24;;;;;;;10.48;2.35;;;11.90;99.90;;;;;;5076263;28;20043;-75
2023/01/01 14:05:58;;;;;;;12.52;2.08;;;11.80;99.90;;;;;;5016098;28;20083;-75
2023/01/01 14:08:28;;;;;;;9.07;2.10;;;11.80;99.90;;;;;;5076545;28;20043;-74
2023/01/01 14:22:55;;;;;;;11.27;2.33;;;11.40;99.90;;;;;;4952515;28;20217;-74
2023/01/01 14:26:32;;;;;;;8.77;1.90;;;13.10;99.90;;;;;;4968415;28;20351;-74
2023/01/01 14:29:35;;;;;;;11.02;2.20;;;11.60;99.90;;;;;;4966057;28;20074;-75
2023/01/01 14:32:24;;;;;;;9.45;2.47;;;11.60;99.90;;;;;;4950008;28;20101;-74
2023/01/01 14:35:00;;;;;;;14.63;2.58;;;11.50;99.90;;;;;;4955231;28;20171;-75
2023/01/01 14:37:26;;;;;;;13.43;2.25;;;11.50;99.90;;;;;;4972681;28;20088;-74
2023/01/01 14:40:14;;;;;;;9.50;2.20;;;11.50;99.90;;;;;;4993068;28;20038;-74
2023/01/01 14:42:39;;;;;;;6.65;2.03;;;11.40;99.90;;;;;;5000349;28;20045;-74
2023/01/01 14:45:12;;;;;;;8.10;2.45;;;11.40;99.90;;;;;;4964545;28;20376;-75
2023/01/01 14:47:37;;;;;;;13.35;2.65;;;11.40;99.90;;;;;;4982010;28;20041;-74
2023/01/01 14:50:15;;;;;;;17.27;2.35;;;11.40;99.90;;;;;;4981619;28;20049;-74
2023/01/01 14:52:40;;;;;;;15.18;2.55;;;11.30;99.90;;;;;;5024514;28;20077;-73
2023/01/01 14:55:14;;;;;;;13.50;2.35;;;11.30;99.90;;;;;;4990967;28;20042;-74
2023/01/01 15:05:38;;;;;;;;;;;;;;;;;;;;;
2023/01/01 15:09:22;;;;;;;11.73;2.25;;;11.20;99.90;;;;;;4982323;28;20118;-76
2023/01/01 15:12:05;;;;;;;12.90;2.65;;;9.90;99.90;;;;;;4915010;29;20040;-76
2023/01/01 15:15:21;;;;;;;9.73;2.60;;;12.00;99.90;;;;;;4920647;29;20075;-75
2023/01/01 15:17:50;;;;;;;17.73;2.80;;;11.80;99.90;;;;;;4924242;28;20051;-75
2023/01/01 15:21:29;;;;;;;;;;;;;;;;;;;;;
2023/01/01 15:36:18;;;;;;;;;;;;;;;;;;;;;
2023/01/01 16:33:56;;;;;;;;;;;;;;;;;;;;;
2023/01/01 16:40:41;;;;;;;;;;;8.90;99.90;;;;;;4753891;30;20076;-76
2023/01/01 16:44:26;;;;;;;14.23;4.20;;;9.60;99.90;;;;;;4758432;30;19981;-75
2023/01/01 17:02:21;;;;;;;12.13;4.35;;;10.40;99.90;;;;;;4849584;22;33407088;-76
2023/01/01 17:27:40;;;;;;;16.83;6.50;;;11.70;99.90;;;;;;6029304;23;20019;-79
2023/01/01 17:30:15;;;;;;;13.35;5.72;;;10.40;99.90;;;;;;6137331;23;20040;-76
2023/01/01 17:32:53;;;;;;;12.35;4.72;;;10.40;99.90;;;;;;6188290;22;20022;-77
2023/01/01 17:35:34;;;;;;;13.52;5.47;;;10.30;99.90;;;;;;6289115;22;20015;-77
2023/01/01 17:38:02;;;;;;;17.65;3.90;;;10.40;99.90;;;;;;6288772;22;20281;-78
2023/01/01 17:44:53;;;;;;;13.77;4.60;;;10.00;99.90;;;;;;6286538;22;20016;-76
2023/01/01 17:47:21;;;;;;;;;;;10.50;99.90;;;;;;6209908;22;20046;-76
2023/01/01 17:49:55;;;;;;;10.77;3.60;;;10.30;99.90;;;;;;6316659;22;19918;-77
2023/01/01 17:52:41;;;;;;;50.35;31.13;;;10.30;99.90;;;;;;6328921;22;20013;-78
2023/01/01 18:00:01;;;;;;;;;;;;;;;;;;;;;
2023/01/01 18:02:52;;;;;;;11.38;4.68;;;10.40;99.90;;;;;;6111354;23;20019;-75
2023/01/01 18:09:21;;;;;;;;;;;;;;;;;;;;;
2023/01/01 18:12:29;;;;;;;11.45;3.60;;;9.60;99.90;;;;;;6187611;23;20009;-77
2023/01/01 18:15:14;;;;;;;11.93;4.38;;;10.70;99.90;;;;;;6157436;23;20033;-76
2023/01/01 18:18:29;;;;;;;13.07;4.65;;;10.60;99.90;;;;;;6242211;22;20015;-76
2023/01/01 18:21:55;;;;;;;15.30;5.60;;;9.80;99.90;;;;;;6284400;22;20022;-76
2023/01/01 18:25:18;;;;;;;12.02;3.75;;;9.60;99.90;;;;;;6212844;23;20048;-76
2023/01/01 18:28:06;;;;;;;13.65;4.68;;;11.80;99.90;;;;;;6035890;23;20030;-78
2023/01/01 18:31:15;;;;;;;8.27;3.35;;;10.70;99.90;;;;;;5993986;23;20034;-77
2023/01/01 18:34:13;;;;;;;;;;;;;;;;;;;;;
2023/01/01 18:45:13;;;;;;;14.02;4.40;;;10.80;99.90;;;;;;6227000;22;20070;-74
2023/01/01 18:47:39;;;;;;;16.33;4.90;;;10.80;99.90;;;;;;6253831;22;20019;-74
2023/01/01 18:50:17;;;;;;;13.05;4.35;;;10.90;99.90;;;;;;6311148;22;20069;-74